Bjaeverskov, Denmark
Current Conditions -  °F | °C
As of 3:20 PM on Sunday 21 Dec 2014 (Local Time) from EKRK Reporting Station
Light Rain Light Rain  
Wind Chill: 36°   Ceiling: 1600
Heat Index: 43°   Visibility: 6mi
Dew Point: 41°   Wind: 13mph
Humidity: 93%   Direction: 240°WSW
Pressure: 29.88"   Gusts: NA
Location:  55.46°N, 12.04°E
Report Text: EKRK 211420Z AUTO 24011KT 9999NDV -RA FEW009/// SCT012///BKN016/// OVC022/// 06/05 Q1012 RERA
Loading
Personal Weather Stations






























Interactive Weather Map New forecast layout! Learn more

10-Day Weather Forecast

Advertisements
Track Severe Weather on mobile